sensor_id;sensor_type;location;lat;lon;timestamp;P1;durP1;ratioP1;P2;durP2;ratioP2
55312;SDS011;46892;45.668;11.756;2024-01-10T00:01:45;41.67;;;26.43;;
55312;SDS011;46892;45.668;11.756;2024-01-10T00:04:11;38.07;;;25.00;;
55312;SDS011;46892;45.668;11.756;2024-01-10T00:06:36;39.67;;;25.13;;
55312;SDS011;46892;45.668;11.756;2024-01-10T00:09:02;37.50;;;24.67;;
55312;SDS011;46892;45.668;11.756;2024-01-10T00:11:28;36.87;;;24.07;;
55312;SDS011;46892;45.668;11.756;2024-01-10T00:13:53;39.27;;;25.53;;
55312;SDS011;46892;45.668;11.756;2024-01-10T00:18:53;39.77;;;24.23;;
55312;SDS011;46892;45.668;11.756;2024-01-10T00:21:18;39.10;;;24.90;;
55312;SDS011;46892;45.668;11.756;2024-01-10T00:23:44;42.23;;;24.70;;
55312;SDS011;46892;45.668;11.756;2024-01-10T00:26:10;39.03;;;24.03;;
55312;SDS011;46892;45.668;11.756;2024-01-10T00:28:35;43.67;;;25.70;;
55312;SDS011;46892;45.668;11.756;2024-01-10T00:31:01;41.97;;;26.30;;
55312;SDS011;46892;45.668;11.756;2024-01-10T00:33:27;39.77;;;24.67;;
55312;SDS011;46892;45.668;11.756;2024-01-10T00:35:53;40.70;;;25.50;;
55312;SDS011;46892;45.668;11.756;2024-01-10T00:38:19;42.83;;;23.97;;
55312;SDS011;46892;45.668;11.756;2024-01-10T00:40:45;38.83;;;24.50;;
55312;SDS011;46892;45.668;11.756;2024-01-10T00:43:10;45.67;;;26.10;;
55312;SDS011;46892;45.668;11.756;2024-01-10T00:45:36;38.37;;;24.57;;
55312;SDS011;46892;45.668;11.756;2024-01-10T00:48:02;38.80;;;24.07;;
55312;SDS011;46892;45.668;11.756;2024-01-10T00:50:28;42.60;;;24.87;;
55312;SDS011;46892;45.668;11.756;2024-01-10T00:52:53;40.60;;;25.07;;
55312;SDS011;46892;45.668;11.756;2024-01-10T00:55:19;41.17;;;25.80;;
55312;SDS011;46892;45.668;11.756;2024-01-10T00:57:45;35.47;;;22.03;;
55312;SDS011;46892;45.668;11.756;2024-01-10T01:00:11;34.50;;;22.00;;
55312;SDS011;46892;45.668;11.756;2024-01-10T01:02:37;35.20;;;23.13;;
55312;SDS011;46892;45.668;11.756;2024-01-10T01:05:06;34.33;;;21.07;;
55312;SDS011;46892;45.668;11.756;2024-01-10T01:07:33;37.00;;;22.67;;
55312;SDS011;46892;45.668;11.756;2024-01-10T01:09:59;33.67;;;21.50;;
55312;SDS011;46892;45.668;11.756;2024-01-10T01:12:25;38.53;;;23.57;;
55312;SDS011;46892;45.668;11.756;2024-01-10T01:14:50;43.10;;;26.73;;
55312;SDS011;46892;45.668;11.756;2024-01-10T01:17:16;41.20;;;23.07;;
55312;SDS011;46892;45.668;11.756;2024-01-10T01:19:42;32.93;;;20.30;;
55312;SDS011;46892;45.668;11.756;2024-01-10T01:22:08;30.17;;;19.37;;
55312;SDS011;46892;45.668;11.756;2024-01-10T01:24:34;28.97;;;19.40;;
55312;SDS011;46892;45.668;11.756;2024-01-10T01:26:59;30.87;;;18.77;;
55312;SDS011;46892;45.668;11.756;2024-01-10T01:29:25;27.77;;;16.60;;
55312;SDS011;46892;45.668;11.756;2024-01-10T01:31:51;29.77;;;17.17;;
55312;SDS011;46892;45.668;11.756;2024-01-10T01:34:19;24.93;;;16.20;;
55312;SDS011;46892;45.668;11.756;2024-01-10T01:36:45;27.43;;;15.87;;
55312;SDS011;46892;45.668;11.756;2024-01-10T01:39:11;24.27;;;15.47;;
55312;SDS011;46892;45.668;11.756;2024-01-10T01:41:40;26.80;;;16.17;;
55312;SDS011;46892;45.668;11.756;2024-01-10T01:44:05;25.27;;;15.60;;
55312;SDS011;46892;45.668;11.756;2024-01-10T01:46:32;26.23;;;16.00;;
55312;SDS011;46892;45.668;11.756;2024-01-10T01:49:01;25.17;;;15.47;;
55312;SDS011;46892;45.668;11.756;2024-01-10T01:51:28;25.03;;;15.30;;
55312;SDS011;46892;45.668;11.756;2024-01-10T01:53:56;24.93;;;15.60;;
55312;SDS011;46892;45.668;11.756;2024-01-10T01:56:22;24.00;;;14.97;;
55312;SDS011;46892;45.668;11.756;2024-01-10T01:58:52;20.87;;;13.80;;
55312;SDS011;46892;45.668;11.756;2024-01-10T02:01:19;21.98;;;13.98;;
55312;SDS011;46892;45.668;11.756;2024-01-10T02:03:46;24.37;;;14.57;;
55312;SDS011;46892;45.668;11.756;2024-01-10T02:06:12;23.37;;;14.80;;
55312;SDS011;46892;45.668;11.756;2024-01-10T02:08:38;20.47;;;13.17;;
55312;SDS011;46892;45.668;11.756;2024-01-10T02:11:04;21.03;;;12.70;;
55312;SDS011;46892;45.668;11.756;2024-01-10T02:13:31;21.07;;;13.20;;
55312;SDS011;46892;45.668;11.756;2024-01-10T02:16:00;21.93;;;12.93;;
55312;SDS011;46892;45.668;11.756;2024-01-10T02:18:28;20.60;;;12.40;;
55312;SDS011;46892;45.668;11.756;2024-01-10T02:20:54;18.23;;;10.73;;
55312;SDS011;46892;45.668;11.756;2024-01-10T02:23:19;19.40;;;11.13;;
55312;SDS011;46892;45.668;11.756;2024-01-10T02:25:45;17.13;;;10.43;;
55312;SDS011;46892;45.668;11.756;2024-01-10T02:28:11;15.77;;;10.30;;
55312;SDS011;46892;45.668;11.756;2024-01-10T02:30:37;15.27;;;9.60;;
55312;SDS011;46892;45.668;11.756;2024-01-10T02:33:03;14.43;;;8.97;;
55312;SDS011;46892;45.668;11.756;2024-01-10T02:35:29;15.70;;;9.67;;
55312;SDS011;46892;45.668;11.756;2024-01-10T02:37:58;16.53;;;8.97;;
55312;SDS011;46892;45.668;11.756;2024-01-10T02:40:24;14.27;;;8.23;;
55312;SDS011;46892;45.668;11.756;2024-01-10T02:42:50;13.40;;;8.17;;
55312;SDS011;46892;45.668;11.756;2024-01-10T02:45:16;14.47;;;8.40;;
55312;SDS011;46892;45.668;11.756;2024-01-10T02:47:42;14.63;;;9.00;;
55312;SDS011;46892;45.668;11.756;2024-01-10T02:50:08;12.90;;;7.73;;
55312;SDS011;46892;45.668;11.756;2024-01-10T02:52:34;11.77;;;7.03;;
55312;SDS011;46892;45.668;11.756;2024-01-10T02:55:00;14.17;;;8.90;;
55312;SDS011;46892;45.668;11.756;2024-01-10T02:57:26;12.47;;;8.20;;
55312;SDS011;46892;45.668;11.756;2024-01-10T02:59:51;12.20;;;7.50;;
55312;SDS011;46892;45.668;11.756;2024-01-10T03:02:17;11.50;;;7.37;;
55312;SDS011;46892;45.668;11.756;2024-01-10T03:04:43;11.67;;;6.87;;
55312;SDS011;46892;45.668;11.756;2024-01-10T03:07:11;12.70;;;7.23;;
55312;SDS011;46892;45.668;11.756;2024-01-10T03:09:37;13.03;;;7.87;;
55312;SDS011;46892;45.668;11.756;2024-01-10T03:12:03;12.97;;;7.70;;
55312;SDS011;46892;45.668;11.756;2024-01-10T03:14:29;13.97;;;8.70;;
55312;SDS011;46892;45.668;11.756;2024-01-10T03:16:55;11.13;;;7.17;;
55312;SDS011;46892;45.668;11.756;2024-01-10T03:19:21;13.87;;;8.37;;
55312;SDS011;46892;45.668;11.756;2024-01-10T03:21:46;13.03;;;8.50;;
55312;SDS011;46892;45.668;11.756;2024-01-10T03:24:12;13.07;;;7.87;;
55312;SDS011;46892;45.668;11.756;2024-01-10T03:26:38;15.47;;;8.17;;
55312;SDS011;46892;45.668;11.756;2024-01-10T03:29:04;15.13;;;8.20;;
55312;SDS011;46892;45.668;11.756;2024-01-10T03:31:30;15.00;;;8.27;;
55312;SDS011;46892;45.668;11.756;2024-01-10T03:33:56;14.47;;;8.80;;
55312;SDS011;46892;45.668;11.756;2024-01-10T03:36:23;11.87;;;7.60;;
55312;SDS011;46892;45.668;11.756;2024-01-10T03:38:49;12.60;;;7.07;;
55312;SDS011;46892;45.668;11.756;2024-01-10T03:41:16;14.83;;;8.03;;
55312;SDS011;46892;45.668;11.756;2024-01-10T03:43:42;12.13;;;7.23;;
55312;SDS011;46892;45.668;11.756;2024-01-10T03:46:09;13.03;;;7.77;;
55312;SDS011;46892;45.668;11.756;2024-01-10T03:48:35;12.47;;;7.90;;
55312;SDS011;46892;45.668;11.756;2024-01-10T03:51:02;13.47;;;8.00;;
55312;SDS011;46892;45.668;11.756;2024-01-10T03:53:28;12.87;;;7.90;;
55312;SDS011;46892;45.668;11.756;2024-01-10T03:55:55;13.27;;;7.80;;
55312;SDS011;46892;45.668;11.756;2024-01-10T03:58:20;12.50;;;7.40;;
55312;SDS011;46892;45.668;11.756;2024-01-10T04:00:46;14.77;;;9.10;;
55312;SDS011;46892;45.668;11.756;2024-01-10T04:03:12;16.00;;;8.67;;
55312;SDS011;46892;45.668;11.756;2024-01-10T04:05:38;14.37;;;8.67;;
55312;SDS011;46892;45.668;11.756;2024-01-10T04:08:04;16.27;;;11.03;;
55312;SDS011;46892;45.668;11.756;2024-01-10T04:10:30;18.10;;;11.43;;
55312;SDS011;46892;45.668;11.756;2024-01-10T04:12:56;16.50;;;10.77;;
55312;SDS011;46892;45.668;11.756;2024-01-10T04:15:21;13.77;;;9.57;;
55312;SDS011;46892;45.668;11.756;2024-01-10T04:17:47;14.33;;;9.10;;
55312;SDS011;46892;45.668;11.756;2024-01-10T04:20:13;15.73;;;9.40;;
55312;SDS011;46892;45.668;11.756;2024-01-10T04:22:39;16.17;;;9.50;;
55312;SDS011;46892;45.668;11.756;2024-01-10T04:25:05;15.63;;;9.50;;
55312;SDS011;46892;45.668;11.756;2024-01-10T04:27:32;15.20;;;9.93;;
55312;SDS011;46892;45.668;11.756;2024-01-10T04:29:58;16.53;;;9.50;;
55312;SDS011;46892;45.668;11.756;2024-01-10T04:32:24;14.97;;;9.90;;
55312;SDS011;46892;45.668;11.756;2024-01-10T04:34:50;15.77;;;9.63;;
55312;SDS011;46892;45.668;11.756;2024-01-10T04:37:16;14.47;;;9.27;;
55312;SDS011;46892;45.668;11.756;2024-01-10T04:39:42;15.33;;;9.73;;
55312;SDS011;46892;45.668;11.756;2024-01-10T04:42:08;17.90;;;9.50;;
55312;SDS011;46892;45.668;11.756;2024-01-10T04:44:35;20.50;;;12.37;;
55312;SDS011;46892;45.668;11.756;2024-01-10T04:47:01;18.23;;;11.00;;
55312;SDS011;46892;45.668;11.756;2024-01-10T04:49:27;21.43;;;12.27;;
55312;SDS011;46892;45.668;11.756;2024-01-10T04:51:53;20.80;;;11.87;;
55312;SDS011;46892;45.668;11.756;2024-01-10T04:54:19;21.53;;;11.70;;
55312;SDS011;46892;45.668;11.756;2024-01-10T04:56:45;20.90;;;12.70;;
55312;SDS011;46892;45.668;11.756;2024-01-10T04:59:11;23.50;;;13.60;;
55312;SDS011;46892;45.668;11.756;2024-01-10T05:01:37;25.63;;;14.27;;
55312;SDS011;46892;45.668;11.756;2024-01-10T05:04:03;24.67;;;14.73;;
55312;SDS011;46892;45.668;11.756;2024-01-10T05:06:29;27.00;;;15.33;;
55312;SDS011;46892;45.668;11.756;2024-01-10T05:08:55;25.03;;;13.53;;
55312;SDS011;46892;45.668;11.756;2024-01-10T05:11:24;25.00;;;14.57;;
55312;SDS011;46892;45.668;11.756;2024-01-10T05:13:53;37.53;;;17.70;;
55312;SDS011;46892;45.668;11.756;2024-01-10T05:16:19;34.67;;;19.03;;
55312;SDS011;46892;45.668;11.756;2024-01-10T05:18:45;33.07;;;18.43;;
55312;SDS011;46892;45.668;11.756;2024-01-10T05:21:11;32.67;;;18.83;;
55312;SDS011;46892;45.668;11.756;2024-01-10T05:23:37;34.00;;;18.43;;
55312;SDS011;46892;45.668;11.756;2024-01-10T05:26:04;30.20;;;15.97;;
55312;SDS011;46892;45.668;11.756;2024-01-10T05:28:30;34.60;;;17.50;;
55312;SDS011;46892;45.668;11.756;2024-01-10T05:30:56;30.60;;;16.57;;
55312;SDS011;46892;45.668;11.756;2024-01-10T05:33:22;28.47;;;16.13;;
55312;SDS011;46892;45.668;11.756;2024-01-10T05:35:48;28.53;;;15.70;;
55312;SDS011;46892;45.668;11.756;2024-01-10T05:38:14;28.63;;;15.17;;
55312;SDS011;46892;45.668;11.756;2024-01-10T05:40:40;24.67;;;14.70;;
55312;SDS011;46892;45.668;11.756;2024-01-10T05:43:06;24.97;;;14.03;;
55312;SDS011;46892;45.668;11.756;2024-01-10T05:45:32;26.43;;;14.57;;
55312;SDS011;46892;45.668;11.756;2024-01-10T05:47:58;23.43;;;12.73;;
55312;SDS011;46892;45.668;11.756;2024-01-10T05:50:24;19.77;;;12.23;;
55312;SDS011;46892;45.668;11.756;2024-01-10T05:52:50;24.60;;;13.03;;
55312;SDS011;46892;45.668;11.756;2024-01-10T05:55:15;22.43;;;11.57;;
55312;SDS011;46892;45.668;11.756;2024-01-10T05:57:41;21.47;;;11.83;;
55312;SDS011;46892;45.668;11.756;2024-01-10T06:00:07;23.33;;;13.00;;
55312;SDS011;46892;45.668;11.756;2024-01-10T06:02:38;23.17;;;12.73;;
55312;SDS011;46892;45.668;11.756;2024-01-10T06:05:13;21.53;;;12.77;;
55312;SDS011;46892;45.668;11.756;2024-01-10T06:07:39;23.20;;;13.30;;
55312;SDS011;46892;45.668;11.756;2024-01-10T06:10:08;23.70;;;12.83;;
55312;SDS011;46892;45.668;11.756;2024-01-10T06:12:35;20.60;;;12.87;;
55312;SDS011;46892;45.668;11.756;2024-01-10T06:15:00;22.97;;;13.67;;
55312;SDS011;46892;45.668;11.756;2024-01-10T06:17:26;22.20;;;13.50;;
55312;SDS011;46892;45.668;11.756;2024-01-10T06:19:52;22.17;;;12.90;;
55312;SDS011;46892;45.668;11.756;2024-01-10T06:22:17;22.07;;;13.03;;
55312;SDS011;46892;45.668;11.756;2024-01-10T06:24:43;20.53;;;12.40;;
55312;SDS011;46892;45.668;11.756;2024-01-10T06:27:09;19.30;;;11.90;;
55312;SDS011;46892;45.668;11.756;2024-01-10T06:29:35;18.37;;;11.23;;
55312;SDS011;46892;45.668;11.756;2024-01-10T06:32:02;17.10;;;10.97;;
55312;SDS011;46892;45.668;11.756;2024-01-10T06:34:29;18.23;;;9.70;;
55312;SDS011;46892;45.668;11.756;2024-01-10T06:36:54;16.77;;;10.43;;
55312;SDS011;46892;45.668;11.756;2024-01-10T06:39:20;16.70;;;10.57;;
55312;SDS011;46892;45.668;11.756;2024-01-10T06:41:47;19.30;;;10.97;;
55312;SDS011;46892;45.668;11.756;2024-01-10T06:44:13;16.90;;;10.47;;
55312;SDS011;46892;45.668;11.756;2024-01-10T06:46:40;17.53;;;11.10;;
55312;SDS011;46892;45.668;11.756;2024-01-10T06:49:05;19.37;;;10.47;;
55312;SDS011;46892;45.668;11.756;2024-01-10T06:51:32;15.63;;;10.73;;
55312;SDS011;46892;45.668;11.756;2024-01-10T06:53:58;18.33;;;10.93;;
55312;SDS011;46892;45.668;11.756;2024-01-10T06:56:29;17.83;;;10.93;;
55312;SDS011;46892;45.668;11.756;2024-01-10T06:58:58;17.43;;;10.60;;
55312;SDS011;46892;45.668;11.756;2024-01-10T07:01:31;17.20;;;10.30;;
55312;SDS011;46892;45.668;11.756;2024-01-10T07:03:57;17.33;;;10.30;;
55312;SDS011;46892;45.668;11.756;2024-01-10T07:06:23;20.27;;;11.00;;
55312;SDS011;46892;45.668;11.756;2024-01-10T07:08:49;19.80;;;12.50;;
55312;SDS011;46892;45.668;11.756;2024-01-10T07:11:16;21.43;;;11.93;;
55312;SDS011;46892;45.668;11.756;2024-01-10T07:13:42;19.43;;;11.30;;
55312;SDS011;46892;45.668;11.756;2024-01-10T07:16:08;21.07;;;12.70;;
55312;SDS011;46892;45.668;11.756;2024-01-10T07:18:34;18.53;;;11.07;;
55312;SDS011;46892;45.668;11.756;2024-01-10T07:21:00;23.00;;;12.60;;
55312;SDS011;46892;45.668;11.756;2024-01-10T07:23:26;18.10;;;11.80;;
55312;SDS011;46892;45.668;11.756;2024-01-10T07:25:52;20.03;;;11.43;;
55312;SDS011;46892;45.668;11.756;2024-01-10T07:28:19;20.83;;;11.07;;
55312;SDS011;46892;45.668;11.756;2024-01-10T07:30:45;21.57;;;11.67;;
55312;SDS011;46892;45.668;11.756;2024-01-10T07:33:11;23.13;;;12.20;;
55312;SDS011;46892;45.668;11.756;2024-01-10T07:35:37;22.17;;;12.17;;
55312;SDS011;46892;45.668;11.756;2024-01-10T07:38:04;18.50;;;11.13;;
55312;SDS011;46892;45.668;11.756;2024-01-10T07:40:34;14.73;;;8.93;;
55312;SDS011;46892;45.668;11.756;2024-01-10T07:43:00;19.77;;;11.93;;
55312;SDS011;46892;45.668;11.756;2024-01-10T07:45:26;24.47;;;13.67;;
55312;SDS011;46892;45.668;11.756;2024-01-10T07:47:52;24.60;;;14.20;;
55312;SDS011;46892;45.668;11.756;2024-01-10T07:50:18;22.70;;;14.07;;
55312;SDS011;46892;45.668;11.756;2024-01-10T07:52:45;22.97;;;13.73;;
55312;SDS011;46892;45.668;11.756;2024-01-10T07:55:14;24.17;;;14.17;;
55312;SDS011;46892;45.668;11.756;2024-01-10T07:57:41;30.10;;;14.00;;
55312;SDS011;46892;45.668;11.756;2024-01-10T08:00:10;23.27;;;14.20;;
55312;SDS011;46892;45.668;11.756;2024-01-10T08:02:39;21.60;;;13.43;;
55312;SDS011;46892;45.668;11.756;2024-01-10T08:05:05;24.53;;;14.33;;
55312;SDS011;46892;45.668;11.756;2024-01-10T08:07:34;26.77;;;15.33;;
55312;SDS011;46892;45.668;11.756;2024-01-10T08:10:02;21.93;;;14.37;;
55312;SDS011;46892;45.668;11.756;2024-01-10T08:12:31;24.20;;;16.33;;
55312;SDS011;46892;45.668;11.756;2024-01-10T08:14:57;27.33;;;17.70;;
55312;SDS011;46892;45.668;11.756;2024-01-10T08:17:23;32.77;;;18.60;;
55312;SDS011;46892;45.668;11.756;2024-01-10T08:19:49;34.10;;;19.63;;
55312;SDS011;46892;45.668;11.756;2024-01-10T08:22:14;32.93;;;18.87;;
55312;SDS011;46892;45.668;11.756;2024-01-10T08:24:40;34.13;;;17.70;;
55312;SDS011;46892;45.668;11.756;2024-01-10T08:27:06;40.40;;;16.93;;
55312;SDS011;46892;45.668;11.756;2024-01-10T08:29:33;23.30;;;13.77;;
55312;SDS011;46892;45.668;11.756;2024-01-10T08:31:58;20.93;;;12.70;;
55312;SDS011;46892;45.668;11.756;2024-01-10T08:34:24;19.13;;;11.10;;
55312;SDS011;46892;45.668;11.756;2024-01-10T08:36:51;23.67;;;11.87;;
55312;SDS011;46892;45.668;11.756;2024-01-10T08:39:17;17.40;;;9.87;;
55312;SDS011;46892;45.668;11.756;2024-01-10T08:41:43;14.90;;;9.60;;
55312;SDS011;46892;45.668;11.756;2024-01-10T08:44:12;16.10;;;9.93;;
55312;SDS011;46892;45.668;11.756;2024-01-10T08:46:38;15.23;;;9.77;;
55312;SDS011;46892;45.668;11.756;2024-01-10T08:49:04;17.03;;;10.57;;
55312;SDS011;46892;45.668;11.756;2024-01-10T08:51:30;16.23;;;9.03;;
55312;SDS011;46892;45.668;11.756;2024-01-10T08:53:56;15.50;;;9.50;;
55312;SDS011;46892;45.668;11.756;2024-01-10T08:56:22;23.97;;;13.77;;
55312;SDS011;46892;45.668;11.756;2024-01-10T08:58:51;24.87;;;13.20;;
55312;SDS011;46892;45.668;11.756;2024-01-10T09:01:18;16.30;;;10.40;;
55312;SDS011;46892;45.668;11.756;2024-01-10T09:03:44;14.83;;;9.50;;
55312;SDS011;46892;45.668;11.756;2024-01-10T09:06:10;15.43;;;9.57;;
55312;SDS011;46892;45.668;11.756;2024-01-10T09:08:37;16.77;;;9.00;;
55312;SDS011;46892;45.668;11.756;2024-01-10T09:11:07;15.65;;;9.27;;
55312;SDS011;46892;45.668;11.756;2024-01-10T09:13:32;13.50;;;7.93;;
55312;SDS011;46892;45.668;11.756;2024-01-10T09:15:59;14.20;;;8.23;;
55312;SDS011;46892;45.668;11.756;2024-01-10T09:18:25;14.30;;;9.23;;
55312;SDS011;46892;45.668;11.756;2024-01-10T09:20:51;15.03;;;8.53;;
55312;SDS011;46892;45.668;11.756;2024-01-10T09:23:16;14.47;;;8.20;;
55312;SDS011;46892;45.668;11.756;2024-01-10T09:25:43;13.50;;;8.20;;
55312;SDS011;46892;45.668;11.756;2024-01-10T09:28:09;12.00;;;7.33;;
55312;SDS011;46892;45.668;11.756;2024-01-10T09:30:35;12.70;;;7.33;;
55312;SDS011;46892;45.668;11.756;2024-01-10T09:33:01;12.60;;;7.43;;
55312;SDS011;46892;45.668;11.756;2024-01-10T09:35:26;12.23;;;6.93;;
55312;SDS011;46892;45.668;11.756;2024-01-10T09:37:52;10.93;;;6.33;;
55312;SDS011;46892;45.668;11.756;2024-01-10T09:40:19;9.97;;;6.27;;
55312;SDS011;46892;45.668;11.756;2024-01-10T09:42:47;11.13;;;6.37;;
55312;SDS011;46892;45.668;11.756;2024-01-10T09:45:16;14.23;;;7.38;;
55312;SDS011;46892;45.668;11.756;2024-01-10T09:47:45;11.43;;;6.83;;
55312;SDS011;46892;45.668;11.756;2024-01-10T09:52:42;9.20;;;5.53;;
55312;SDS011;46892;45.668;11.756;2024-01-10T09:55:15;10.23;;;6.10;;
55312;SDS011;46892;45.668;11.756;2024-01-10T09:57:42;10.40;;;5.77;;
55312;SDS011;46892;45.668;11.756;2024-01-10T10:00:10;9.80;;;6.03;;
55312;SDS011;46892;45.668;11.756;2024-01-10T10:02:37;10.43;;;5.67;;
55312;SDS011;46892;45.668;11.756;2024-01-10T10:05:14;17.40;;;10.53;;
55312;SDS011;46892;45.668;11.756;2024-01-10T10:07:48;23.43;;;15.80;;
55312;SDS011;46892;45.668;11.756;2024-01-10T10:10:18;45.50;;;27.20;;
55312;SDS011;46892;45.668;11.756;2024-01-10T10:12:48;11.83;;;7.53;;
55312;SDS011;46892;45.668;11.756;2024-01-10T10:15:18;10.30;;;5.60;;
55312;SDS011;46892;45.668;11.756;2024-01-10T10:17:47;10.53;;;6.07;;
55312;SDS011;46892;45.668;11.756;2024-01-10T10:22:39;11.53;;;6.30;;
55312;SDS011;46892;45.668;11.756;2024-01-10T10:25:07;9.73;;;5.83;;
55312;SDS011;46892;45.668;11.756;2024-01-10T10:27:33;11.50;;;6.47;;
55312;SDS011;46892;45.668;11.756;2024-01-10T10:30:01;10.17;;;6.00;;
55312;SDS011;46892;45.668;11.756;2024-01-10T10:32:28;11.90;;;6.47;;
55312;SDS011;46892;45.668;11.756;2024-01-10T10:34:56;11.33;;;6.20;;
55312;SDS011;46892;45.668;11.756;2024-01-10T10:37:21;11.10;;;6.03;;
55312;SDS011;46892;45.668;11.756;2024-01-10T10:39:47;10.30;;;5.27;;
55312;SDS011;46892;45.668;11.756;2024-01-10T10:42:13;14.87;;;8.50;;
55312;SDS011;46892;45.668;11.756;2024-01-10T10:44:41;10.90;;;6.07;;
55312;SDS011;46892;45.668;11.756;2024-01-10T10:47:10;8.30;;;4.97;;
55312;SDS011;46892;45.668;11.756;2024-01-10T10:49:37;14.73;;;8.00;;
55312;SDS011;46892;45.668;11.756;2024-01-10T10:52:15;8.53;;;4.30;;
55312;SDS011;46892;45.668;11.756;2024-01-10T10:54:44;9.03;;;4.93;;
55312;SDS011;46892;45.668;11.756;2024-01-10T10:57:14;19.13;;;13.87;;
55312;SDS011;46892;45.668;11.756;2024-01-10T10:59:43;13.47;;;8.90;;
55312;SDS011;46892;45.668;11.756;2024-01-10T11:02:11;9.60;;;5.83;;
55312;SDS011;46892;45.668;11.756;2024-01-10T11:04:38;9.67;;;5.80;;
55312;SDS011;46892;45.668;11.756;2024-01-10T11:07:06;9.50;;;5.23;;
55312;SDS011;46892;45.668;11.756;2024-01-10T11:09:33;8.97;;;5.20;;
55312;SDS011;46892;45.668;11.756;2024-01-10T11:12:16;8.77;;;5.17;;
55312;SDS011;46892;45.668;11.756;2024-01-10T11:18:32;9.50;;;5.50;;
55312;SDS011;46892;45.668;11.756;2024-01-10T11:23:40;8.97;;;4.93;;
55312;SDS011;46892;45.668;11.756;2024-01-10T11:26:10;8.73;;;5.00;;
55312;SDS011;46892;45.668;11.756;2024-01-10T11:28:38;9.63;;;5.50;;
55312;SDS011;46892;45.668;11.756;2024-01-10T11:31:05;9.93;;;5.43;;
55312;SDS011;46892;45.668;11.756;2024-01-10T11:33:34;9.03;;;5.47;;
55312;SDS011;46892;45.668;11.756;2024-01-10T11:36:08;9.77;;;5.70;;
55312;SDS011;46892;45.668;11.756;2024-01-10T11:46:43;12.17;;;6.23;;
55312;SDS011;46892;45.668;11.756;2024-01-10T11:49:13;10.13;;;5.80;;
55312;SDS011;46892;45.668;11.756;2024-01-10T11:51:48;10.90;;;5.87;;
55312;SDS011;46892;45.668;11.756;2024-01-10T11:57:00;10.27;;;6.20;;
55312;SDS011;46892;45.668;11.756;2024-01-10T11:59:26;10.33;;;5.53;;
55312;SDS011;46892;45.668;11.756;2024-01-10T12:01:53;10.23;;;6.10;;
55312;SDS011;46892;45.668;11.756;2024-01-10T12:04:20;14.23;;;7.70;;
55312;SDS011;46892;45.668;11.756;2024-01-10T12:06:46;12.33;;;6.60;;
55312;SDS011;46892;45.668;11.756;2024-01-10T12:09:12;9.10;;;5.47;;
55312;SDS011;46892;45.668;11.756;2024-01-10T12:11:39;12.23;;;5.27;;
55312;SDS011;46892;45.668;11.756;2024-01-10T12:14:06;9.33;;;5.27;;
55312;SDS011;46892;45.668;11.756;2024-01-10T12:16:33;11.23;;;6.03;;
55312;SDS011;46892;45.668;11.756;2024-01-10T12:18:59;9.03;;;5.60;;
55312;SDS011;46892;45.668;11.756;2024-01-10T12:21:25;9.87;;;5.60;;
55312;SDS011;46892;45.668;11.756;2024-01-10T12:23:50;9.37;;;4.97;;
55312;SDS011;46892;45.668;11.756;2024-01-10T12:26:16;9.53;;;6.13;;
55312;SDS011;46892;45.668;11.756;2024-01-10T12:28:53;9.90;;;6.40;;
55312;SDS011;46892;45.668;11.756;2024-01-10T12:31:23;9.17;;;5.27;;
55312;SDS011;46892;45.668;11.756;2024-01-10T12:33:50;8.97;;;5.97;;
55312;SDS011;46892;45.668;11.756;2024-01-10T12:36:16;12.77;;;8.50;;
55312;SDS011;46892;45.668;11.756;2024-01-10T12:38:43;8.87;;;4.77;;
55312;SDS011;46892;45.668;11.756;2024-01-10T12:41:14;9.10;;;5.17;;
55312;SDS011;46892;45.668;11.756;2024-01-10T12:43:40;12.00;;;5.67;;
55312;SDS011;46892;45.668;11.756;2024-01-10T12:46:12;9.93;;;5.40;;
55312;SDS011;46892;45.668;11.756;2024-01-10T12:48:39;9.67;;;5.37;;
55312;SDS011;46892;45.668;11.756;2024-01-10T12:51:09;9.57;;;5.15;;
55312;SDS011;46892;45.668;11.756;2024-01-10T12:53:39;9.70;;;5.05;;
55312;SDS011;46892;45.668;11.756;2024-01-10T12:56:06;10.07;;;5.23;;
55312;SDS011;46892;45.668;11.756;2024-01-10T12:58:34;9.30;;;5.67;;
55312;SDS011;46892;45.668;11.756;2024-01-10T13:01:04;9.23;;;5.30;;
55312;SDS011;46892;45.668;11.756;2024-01-10T13:03:30;10.00;;;5.27;;
55312;SDS011;46892;45.668;11.756;2024-01-10T13:05:56;9.53;;;5.50;;
55312;SDS011;46892;45.668;11.756;2024-01-10T13:08:22;10.13;;;5.37;;
55312;SDS011;46892;45.668;11.756;2024-01-10T13:10:48;9.50;;;5.70;;
55312;SDS011;46892;45.668;11.756;2024-01-10T13:13:14;9.07;;;5.73;;
55312;SDS011;46892;45.668;11.756;2024-01-10T13:15:40;9.80;;;5.77;;
55312;SDS011;46892;45.668;11.756;2024-01-10T13:18:07;10.63;;;5.90;;
55312;SDS011;46892;45.668;11.756;2024-01-10T13:20:35;10.17;;;5.93;;
55312;SDS011;46892;45.668;11.756;2024-01-10T13:23:01;9.70;;;5.90;;
55312;SDS011;46892;45.668;11.756;2024-01-10T13:25:27;10.40;;;6.17;;
55312;SDS011;46892;45.668;11.756;2024-01-10T13:27:53;8.10;;;5.17;;
55312;SDS011;46892;45.668;11.756;2024-01-10T13:30:19;9.53;;;5.40;;
55312;SDS011;46892;45.668;11.756;2024-01-10T13:32:45;11.33;;;6.00;;
55312;SDS011;46892;45.668;11.756;2024-01-10T13:35:13;10.40;;;6.20;;
55312;SDS011;46892;45.668;11.756;2024-01-10T13:37:41;12.13;;;7.43;;
55312;SDS011;46892;45.668;11.756;2024-01-10T13:40:07;9.80;;;5.50;;
55312;SDS011;46892;45.668;11.756;2024-01-10T13:42:40;10.13;;;5.87;;
55312;SDS011;46892;45.668;11.756;2024-01-10T13:45:07;11.13;;;5.50;;
55312;SDS011;46892;45.668;11.756;2024-01-10T13:47:37;13.52;;;9.18;;
55312;SDS011;46892;45.668;11.756;2024-01-10T13:50:04;10.83;;;6.00;;
55312;SDS011;46892;45.668;11.756;2024-01-10T13:52:33;9.27;;;5.45;;
55312;SDS011;46892;45.668;11.756;2024-01-10T13:55:00;8.60;;;5.37;;
55312;SDS011;46892;45.668;11.756;2024-01-10T13:57:26;11.20;;;7.67;;
55312;SDS011;46892;45.668;11.756;2024-01-10T13:59:52;9.13;;;5.37;;
55312;SDS011;46892;45.668;11.756;2024-01-10T14:02:22;10.97;;;5.63;;
55312;SDS011;46892;45.668;11.756;2024-01-10T14:04:48;8.47;;;5.37;;
55312;SDS011;46892;45.668;11.756;2024-01-10T14:07:13;14.20;;;5.30;;
55312;SDS011;46892;45.668;11.756;2024-01-10T14:09:39;11.93;;;6.40;;
55312;SDS011;46892;45.668;11.756;2024-01-10T14:12:10;10.50;;;6.23;;
55312;SDS011;46892;45.668;11.756;2024-01-10T14:14:36;10.10;;;6.17;;
55312;SDS011;46892;45.668;11.756;2024-01-10T14:17:02;10.33;;;5.93;;
55312;SDS011;46892;45.668;11.756;2024-01-10T14:19:29;11.40;;;5.93;;
55312;SDS011;46892;45.668;11.756;2024-01-10T14:21:55;10.00;;;5.93;;
55312;SDS011;46892;45.668;11.756;2024-01-10T14:24:21;9.57;;;5.83;;
55312;SDS011;46892;45.668;11.756;2024-01-10T14:26:46;13.10;;;7.57;;
55312;SDS011;46892;45.668;11.756;2024-01-10T14:29:12;9.20;;;4.90;;
55312;SDS011;46892;45.668;11.756;2024-01-10T14:31:38;12.57;;;6.27;;
55312;SDS011;46892;45.668;11.756;2024-01-10T14:34:05;9.80;;;5.67;;
55312;SDS011;46892;45.668;11.756;2024-01-10T14:36:31;11.00;;;6.00;;
55312;SDS011;46892;45.668;11.756;2024-01-10T14:38:57;10.33;;;6.07;;
55312;SDS011;46892;45.668;11.756;2024-01-10T14:41:22;9.70;;;6.10;;